Time;durP1;ratioP1;P1;durP2;ratioP2;P2;SDS_P1;SDS_P2;PMS_P1;PMS_P2;Temp;Humidity;BMP_temperature;BMP_pressure;BME280_temperature;BME280_humidity;BME280_pressure;Samples;Min_cycle;Max_cycle;Signal;HPM_P1;HPM_P2
2021/04/25 00:00:46;;;;;;;23.77;17.63;;;7.50;99.90;;;;;;5051280;28;20108;-69
2021/04/25 00:03:13;;;;;;;21.30;15.43;;;7.40;99.90;;;;;;5049543;28;20135;-69
2021/04/25 00:05:40;;;;;;;21.05;15.43;;;7.40;99.90;;;;;;5050717;28;20158;-68
2021/04/25 00:08:07;;;;;;;20.77;16.13;;;7.40;99.90;;;;;;5048490;28;20555;-68
2021/04/25 00:10:34;;;;;;;21.00;15.68;;;7.40;99.90;;;;;;5031766;28;20076;-68
2021/04/25 00:13:01;;;;;;;19.95;15.48;;;7.40;99.90;;;;;;5036379;28;20054;-68
2021/04/25 00:15:28;;;;;;;24.38;16.33;;;7.30;99.90;;;;;;5036896;28;20100;-68
2021/04/25 00:17:55;;;;;;;21.30;15.98;;;7.30;99.90;;;;;;5046167;28;20044;-68
2021/04/25 00:20:23;;;;;;;21.98;16.60;;;7.20;99.90;;;;;;5035516;28;20050;-69
2021/04/25 00:22:50;;;;;;;23.17;17.00;;;7.20;99.90;;;;;;5036728;28;20037;-69
2021/04/25 00:25:18;;;;;;;19.50;16.10;;;7.10;99.90;;;;;;5036070;28;20128;-68
2021/04/25 00:27:46;;;;;;;24.55;16.23;;;7.10;99.90;;;;;;5036474;28;20449;-68
2021/04/25 00:30:18;;;;;;;23.48;16.80;;;7.10;99.90;;;;;;5040523;28;20052;-68
2021/04/25 00:32:46;;;;;;;21.60;16.35;;;7.00;99.90;;;;;;5040789;28;20045;-68
2021/04/25 00:35:14;;;;;;;24.85;16.65;;;7.00;99.90;;;;;;5047208;28;20499;-68
2021/04/25 00:37:42;;;;;;;21.00;16.08;;;7.00;99.90;;;;;;5046439;28;20045;-68
2021/04/25 00:40:13;;;;;;;21.23;16.33;;;6.90;99.90;;;;;;5038097;28;20045;-68
2021/04/25 00:42:40;;;;;;;20.60;15.63;;;6.90;99.90;;;;;;5039789;28;20134;-68
2021/04/25 00:45:12;;;;;;;21.92;16.67;;;6.80;99.90;;;;;;5046546;28;20057;-68
2021/04/25 00:47:43;;;;;;;21.02;16.80;;;6.80;99.90;;;;;;5053181;28;20064;-69
2021/04/25 00:50:12;;;;;;;23.50;15.90;;;6.80;99.90;;;;;;5049023;28;20538;-69
2021/04/25 00:52:44;;;;;;;24.42;16.45;;;6.70;99.90;;;;;;5049706;28;20059;-67
2021/04/25 00:55:13;;;;;;;21.42;16.67;;;6.70;99.90;;;;;;5049845;28;20566;-68
2021/04/25 00:57:41;;;;;;;20.30;16.35;;;6.70;99.90;;;;;;5042325;28;20052;-68
2021/04/25 01:00:11;;;;;;;21.70;15.77;;;6.60;99.90;;;;;;5049441;28;20048;-68
2021/04/25 01:02:38;;;;;;;20.85;17.05;;;6.60;99.90;;;;;;5049446;28;20534;-69
2021/04/25 01:05:11;;;;;;;25.55;16.00;;;6.60;99.90;;;;;;5035272;28;20056;-68
2021/04/25 01:07:38;;;;;;;22.05;16.02;;;6.50;99.90;;;;;;5052809;28;20454;-68
2021/04/25 01:10:07;;;;;;;19.90;15.70;;;6.40;99.90;;;;;;5044221;28;20084;-68
2021/04/25 01:12:34;;;;;;;23.27;17.10;;;6.40;99.90;;;;;;5045697;28;20106;-68
2021/04/25 01:15:02;;;;;;;21.02;16.45;;;6.40;99.90;;;;;;5053927;28;20063;-68
2021/04/25 01:17:29;;;;;;;20.15;16.25;;;6.30;99.90;;;;;;5047321;28;20329;-68
2021/04/25 01:20:06;;;;;;;22.75;16.00;;;6.40;99.90;;;;;;5052467;28;20152;-68
2021/04/25 01:22:33;;;;;;;19.27;16.15;;;6.30;99.90;;;;;;5039523;28;20065;-68
2021/04/25 01:25:00;;;;;;;19.58;16.55;;;6.30;99.90;;;;;;5051763;28;20111;-68
2021/04/25 01:27:28;;;;;;;23.95;16.85;;;6.20;99.90;;;;;;5049107;28;20049;-68
2021/04/25 01:29:55;;;;;;;18.65;15.88;;;6.20;99.90;;;;;;5039967;28;20508;-68
2021/04/25 01:32:22;;;;;;;24.75;16.27;;;6.20;99.90;;;;;;5050553;28;20068;-68
2021/04/25 01:34:48;;;;;;;22.27;15.98;;;6.20;99.90;;;;;;5035288;28;20054;-69
2021/04/25 01:37:16;;;;;;;24.20;16.55;;;6.20;99.90;;;;;;5034248;28;20050;-68
2021/04/25 01:39:43;;;;;;;21.42;16.58;;;6.20;99.90;;;;;;5036445;28;20071;-68
2021/04/25 01:42:10;;;;;;;22.90;16.23;;;6.20;99.90;;;;;;5046815;28;20503;-68
2021/04/25 01:44:37;;;;;;;19.38;15.40;;;6.20;99.90;;;;;;5050828;28;20103;-68
2021/04/25 01:47:04;;;;;;;19.55;15.65;;;6.20;99.90;;;;;;5037785;28;20103;-68
2021/04/25 01:49:31;;;;;;;20.38;15.13;;;6.10;99.90;;;;;;5051822;28;20045;-68
2021/04/25 01:51:58;;;;;;;22.90;16.40;;;6.10;99.90;;;;;;5027182;28;20044;-68
2021/04/25 01:54:25;;;;;;;22.67;16.70;;;6.10;99.90;;;;;;5045124;28;20132;-69
2021/04/25 01:56:52;;;;;;;18.33;15.05;;;6.10;99.90;;;;;;5044692;28;20053;-69
2021/04/25 01:59:19;;;;;;;19.95;14.90;;;6.10;99.90;;;;;;5045053;28;20069;-69
2021/04/25 02:01:46;;;;;;;23.15;16.55;;;6.10;99.90;;;;;;5051622;28;20076;-68
2021/04/25 02:04:14;;;;;;;17.42;14.65;;;6.00;99.90;;;;;;5052495;28;20060;-69
2021/04/25 02:06:43;;;;;;;19.95;15.82;;;6.00;99.90;;;;;;5050056;28;20811;-69
2021/04/25 02:09:11;;;;;;;18.63;15.90;;;6.00;99.90;;;;;;5049571;28;20053;-68
2021/04/25 02:11:38;;;;;;;24.67;16.77;;;6.00;99.90;;;;;;5048117;28;20048;-68
2021/04/25 02:14:06;;;;;;;22.05;14.95;;;6.00;99.90;;;;;;5047708;28;20048;-68
2021/04/25 02:16:33;;;;;;;21.77;16.33;;;5.90;99.90;;;;;;5048894;28;20120;-68
2021/04/25 02:19:01;;;;;;;21.85;15.77;;;5.90;99.90;;;;;;5052648;28;20476;-68
2021/04/25 02:21:28;;;;;;;19.45;15.63;;;5.80;99.90;;;;;;5051438;28;20052;-68
2021/04/25 02:23:57;;;;;;;24.15;16.00;;;5.80;99.90;;;;;;5052575;28;20045;-68
2021/04/25 02:26:24;;;;;;;21.90;15.32;;;5.70;99.90;;;;;;5051176;28;20079;-68
2021/04/25 02:28:52;;;;;;;18.88;16.25;;;5.70;99.90;;;;;;5033717;28;20060;-68
2021/04/25 02:31:19;;;;;;;21.77;16.33;;;5.70;99.90;;;;;;5039247;28;20093;-68
2021/04/25 02:33:46;;;;;;;21.58;16.10;;;5.60;99.90;;;;;;5050450;28;20434;-68
2021/04/25 02:36:18;;;;;;;20.55;16.48;;;5.60;99.90;;;;;;5032668;28;20061;-68
2021/04/25 02:38:45;;;;;;;20.08;16.25;;;5.60;99.90;;;;;;5031945;28;20042;-68
2021/04/25 02:41:12;;;;;;;20.20;16.23;;;5.60;99.90;;;;;;5031520;28;20057;-68
2021/04/25 02:43:38;;;;;;;21.85;17.13;;;5.50;99.90;;;;;;5045028;28;20122;-69
2021/04/25 02:46:05;;;;;;;20.08;15.88;;;5.50;99.90;;;;;;5051810;28;20395;-68
2021/04/25 02:48:32;;;;;;;18.75;15.73;;;5.40;99.90;;;;;;5051378;28;20088;-68
2021/04/25 02:50:59;;;;;;;22.60;16.92;;;5.40;99.90;;;;;;5039693;28;20049;-68
2021/04/25 02:53:26;;;;;;;21.98;16.80;;;5.40;99.90;;;;;;5052446;28;20088;-68
2021/04/25 02:55:53;;;;;;;19.35;16.35;;;5.30;99.90;;;;;;5049275;28;20460;-68
2021/04/25 02:58:20;;;;;;;20.90;16.05;;;5.30;99.90;;;;;;5040976;28;20508;-67
2021/04/25 03:00:47;;;;;;;20.88;15.70;;;5.20;99.90;;;;;;5039602;28;20103;-68
2021/04/25 03:03:13;;;;;;;24.35;16.92;;;5.10;99.90;;;;;;5040799;28;20156;-68
2021/04/25 03:05:40;;;;;;;22.30;17.25;;;5.10;99.90;;;;;;5044488;28;20139;-68
2021/04/25 03:08:07;;;;;;;22.58;17.00;;;5.10;99.90;;;;;;5045422;28;20080;-68
2021/04/25 03:10:34;;;;;;;21.90;16.85;;;5.00;99.90;;;;;;5042362;28;20079;-68
2021/04/25 03:13:01;;;;;;;19.52;15.95;;;5.00;99.90;;;;;;5049883;28;20049;-69
2021/04/25 03:15:28;;;;;;;22.73;16.42;;;4.90;99.90;;;;;;5041793;28;20417;-68
2021/04/25 03:17:55;;;;;;;19.50;16.20;;;4.90;99.90;;;;;;5045418;28;20061;-68
2021/04/25 03:20:23;;;;;;;19.67;16.30;;;4.90;99.90;;;;;;5051021;28;20053;-68
2021/04/25 03:22:51;;;;;;;19.27;15.52;;;4.90;99.90;;;;;;5051077;28;20099;-68
2021/04/25 03:25:18;;;;;;;22.88;16.30;;;4.80;99.90;;;;;;5038637;28;20100;-68
2021/04/25 03:27:45;;;;;;;21.15;16.65;;;4.80;99.90;;;;;;5049376;28;20059;-69
2021/04/25 03:30:14;;;;;;;22.80;16.13;;;4.70;99.90;;;;;;5037100;28;20479;-69
2021/04/25 03:32:42;;;;;;;18.33;15.15;;;4.70;99.90;;;;;;5040204;28;20076;-69
2021/04/25 03:35:11;;;;;;;24.38;16.00;;;4.60;99.90;;;;;;5045721;28;20052;-69
2021/04/25 03:37:39;;;;;;;21.50;15.85;;;4.60;99.90;;;;;;5042832;28;20041;-69
2021/04/25 03:40:08;;;;;;;23.35;15.80;;;4.60;99.90;;;;;;5050868;28;20037;-69
2021/04/25 03:42:36;;;;;;;21.35;15.85;;;4.50;99.90;;;;;;5048121;28;20087;-69
2021/04/25 03:45:13;;;;;;;17.60;15.25;;;4.50;99.90;;;;;;5030398;28;20073;-69
2021/04/25 03:47:45;;;;;;;20.55;15.75;;;4.50;99.90;;;;;;5047271;28;20056;-69
2021/04/25 03:50:14;;;;;;;23.27;16.20;;;4.40;99.90;;;;;;5042548;28;20178;-69
2021/04/25 03:52:42;;;;;;;21.27;15.98;;;4.30;99.90;;;;;;5048644;28;20447;-69
2021/04/25 03:55:11;;;;;;;19.67;15.57;;;4.30;99.90;;;;;;5047302;28;20095;-69
2021/04/25 03:57:38;;;;;;;19.42;14.77;;;4.20;99.90;;;;;;5049938;28;20772;-69
2021/04/25 04:00:07;;;;;;;21.52;15.88;;;4.20;99.90;;;;;;5045715;28;20053;-69
2021/04/25 04:02:35;;;;;;;22.08;16.10;;;4.20;99.90;;;;;;5045360;28;20581;-69
2021/04/25 04:05:03;;;;;;;20.10;15.55;;;4.10;99.90;;;;;;5049933;28;20053;-69
2021/04/25 04:07:30;;;;;;;21.55;16.05;;;4.10;99.90;;;;;;5044866;28;20057;-69
2021/04/25 04:09:57;;;;;;;21.30;16.00;;;4.10;99.90;;;;;;5050617;28;20041;-69
2021/04/25 04:12:24;;;;;;;20.48;15.18;;;4.10;99.90;;;;;;5043242;28;20114;-69
2021/04/25 04:14:51;;;;;;;20.50;14.77;;;4.00;99.90;;;;;;5049533;28;20045;-69
2021/04/25 04:17:18;;;;;;;20.77;15.05;;;4.00;99.90;;;;;;5051060;28;20160;-69
2021/04/25 04:19:46;;;;;;;18.30;15.07;;;4.00;99.90;;;;;;5054989;28;20040;-69
2021/04/25 04:22:13;;;;;;;17.30;14.23;;;4.00;99.90;;;;;;5053458;28;20506;-69
2021/04/25 04:24:40;;;;;;;18.02;14.43;;;4.00;99.90;;;;;;5053790;28;20562;-69
2021/04/25 04:27:07;;;;;;;20.45;14.90;;;4.00;99.90;;;;;;5053846;28;20037;-69
2021/04/25 04:29:34;;;;;;;22.23;16.27;;;4.10;99.90;;;;;;5054826;28;20076;-69
2021/04/25 04:32:01;;;;;;;19.10;14.50;;;4.10;99.90;;;;;;5050631;28;20568;-69
2021/04/25 04:34:28;;;;;;;18.77;14.80;;;4.10;99.90;;;;;;5047123;28;20500;-69
2021/04/25 04:36:55;;;;;;;19.40;14.82;;;4.20;99.90;;;;;;5044967;28;20053;-69
2021/04/25 04:39:22;;;;;;;23.60;15.18;;;4.20;99.90;;;;;;5039110;28;20056;-69
2021/04/25 04:41:50;;;;;;;19.25;14.52;;;4.30;99.90;;;;;;5041275;28;20500;-69
2021/04/25 04:44:17;;;;;;;19.30;14.18;;;4.30;99.90;;;;;;5048013;28;20808;-69
2021/04/25 04:46:44;;;;;;;19.17;14.55;;;4.40;99.90;;;;;;5051427;28;20118;-69
2021/04/25 04:49:11;;;;;;;18.67;14.23;;;4.40;99.90;;;;;;5053989;28;20606;-69
2021/04/25 04:51:40;;;;;;;19.05;14.88;;;4.50;99.90;;;;;;5053928;28;20048;-69
2021/04/25 04:54:09;;;;;;;17.63;14.48;;;4.50;99.90;;;;;;5048903;28;20534;-69
2021/04/25 04:56:36;;;;;;;23.58;15.57;;;4.60;99.90;;;;;;5033126;28;20052;-69
2021/04/25 04:59:06;;;;;;;20.77;14.63;;;4.60;99.90;;;;;;5045233;28;20116;-69
2021/04/25 05:01:34;;;;;;;17.60;14.25;;;4.60;99.90;;;;;;5054206;28;20045;-69
2021/04/25 05:04:01;;;;;;;17.27;14.73;;;4.80;99.90;;;;;;5052590;28;20565;-69
2021/04/25 05:06:29;;;;;;;18.67;14.85;;;4.80;99.90;;;;;;5049149;28;20475;-69
2021/04/25 05:08:56;;;;;;;18.15;15.35;;;4.90;99.90;;;;;;5049781;28;20080;-69
2021/04/25 05:11:22;;;;;;;19.00;15.00;;;5.00;99.90;;;;;;5053124;28;20102;-69
2021/04/25 05:13:49;;;;;;;16.30;13.48;;;5.10;99.90;;;;;;5050175;28;20505;-69
2021/04/25 05:16:17;;;;;;;19.48;14.60;;;5.20;99.90;;;;;;5050489;28;20073;-69
2021/04/25 05:18:43;;;;;;;21.25;14.25;;;5.30;99.90;;;;;;5050128;28;20048;-69
2021/04/25 05:21:10;;;;;;;22.88;14.82;;;5.30;99.90;;;;;;5047851;28;20561;-69
2021/04/25 05:23:37;;;;;;;17.08;14.75;;;5.40;99.90;;;;;;5053238;28;20052;-69
2021/04/25 05:26:05;;;;;;;20.90;15.82;;;5.40;99.90;;;;;;5049089;28;20392;-69
2021/04/25 05:28:32;;;;;;;17.80;14.45;;;5.50;99.90;;;;;;5045443;28;20445;-69
2021/04/25 05:31:00;;;;;;;17.65;14.68;;;5.50;99.90;;;;;;5047373;28;20076;-69
2021/04/25 05:33:28;;;;;;;18.88;14.43;;;5.60;99.90;;;;;;5044148;28;20073;-68
2021/04/25 05:35:56;;;;;;;17.38;13.95;;;5.60;99.90;;;;;;5033321;28;20515;-69
2021/04/25 05:38:23;;;;;;;15.90;13.98;;;5.70;99.90;;;;;;5050828;28;20053;-69
2021/04/25 05:40:51;;;;;;;19.48;14.02;;;5.80;99.90;;;;;;5032253;28;20077;-69
2021/04/25 05:43:17;;;;;;;18.60;13.98;;;5.90;99.90;;;;;;5033243;28;20049;-69
2021/04/25 05:45:44;;;;;;;19.70;14.73;;;5.90;99.90;;;;;;5041632;28;20048;-69
2021/04/25 05:48:11;;;;;;;17.63;14.30;;;6.00;99.90;;;;;;5033338;28;20472;-69
2021/04/25 05:50:38;;;;;;;16.88;14.35;;;6.00;99.90;;;;;;5041745;28;20778;-69
2021/04/25 05:53:05;;;;;;;19.50;15.00;;;6.10;99.90;;;;;;5052909;28;20087;-68
2021/04/25 05:55:32;;;;;;;19.33;14.95;;;6.20;99.90;;;;;;5052009;28;20049;-69
2021/04/25 05:58:00;;;;;;;18.10;14.75;;;6.20;99.90;;;;;;5045363;28;20132;-69
2021/04/25 06:00:29;;;;;;;18.65;14.50;;;6.30;99.90;;;;;;5039325;28;20121;-69
2021/04/25 06:02:56;;;;;;;20.02;14.90;;;6.40;99.90;;;;;;5051703;28;20456;-69
2021/04/25 06:05:24;;;;;;;18.67;14.77;;;6.50;99.90;;;;;;5049887;28;20077;-70
2021/04/25 06:07:51;;;;;;;16.33;13.85;;;6.50;99.90;;;;;;5050097;28;20506;-68
2021/04/25 06:10:20;;;;;;;17.35;13.68;;;6.60;99.90;;;;;;5048223;28;20451;-68
2021/04/25 06:12:50;;;;;;;17.38;14.38;;;6.70;99.90;;;;;;5049265;28;20056;-67
2021/04/25 06:15:21;;;;;;;19.15;14.07;;;6.80;99.90;;;;;;5047724;28;20159;-68
2021/04/25 06:17:49;;;;;;;18.55;14.60;;;7.00;99.90;;;;;;5045464;28;20128;-68
2021/04/25 06:20:17;;;;;;;19.90;14.80;;;7.00;99.90;;;;;;5052091;28;20048;-68
2021/04/25 06:22:45;;;;;;;19.58;14.82;;;7.10;99.90;;;;;;5038342;28;20125;-68
2021/04/25 06:25:13;;;;;;;18.55;14.65;;;7.20;99.90;;;;;;5051128;28;20048;-68
2021/04/25 06:27:40;;;;;;;16.60;14.43;;;7.20;99.90;;;;;;5049325;28;20470;-68
2021/04/25 06:30:09;;;;;;;15.23;13.65;;;7.40;99.90;;;;;;5045508;28;20057;-68
2021/04/25 06:32:44;;;;;;;13.88;12.35;;;7.40;99.90;;;;;;5040514;28;20136;-68
2021/04/25 06:35:13;;;;;;;18.83;14.73;;;7.50;99.90;;;;;;5033354;28;20111;-69
2021/04/25 06:37:42;;;;;;;16.92;13.30;;;7.50;99.90;;;;;;5033085;28;20114;-69
2021/04/25 06:40:10;;;;;;;20.27;14.32;;;7.50;99.90;;;;;;5037311;28;20049;-68
2021/04/25 06:42:40;;;;;;;15.98;14.20;;;7.50;99.90;;;;;;5032176;28;20049;-68
2021/04/25 06:45:11;;;;;;;18.38;13.10;;;7.60;99.90;;;;;;5039927;28;20049;-68
2021/04/25 06:47:38;;;;;;;18.15;12.55;;;7.60;99.90;;;;;;5034300;28;20057;-68
2021/04/25 06:50:08;;;;;;;17.20;12.45;;;7.70;99.90;;;;;;5041737;28;20090;-68
2021/04/25 06:52:35;;;;;;;17.40;11.63;;;7.80;99.90;;;;;;5045071;28;20064;-68
2021/04/25 06:55:02;;;;;;;16.55;13.70;;;7.90;99.90;;;;;;5044414;28;20057;-68
2021/04/25 06:57:30;;;;;;;16.55;12.98;;;8.10;99.90;;;;;;5043529;28;20556;-68
2021/04/25 06:59:57;;;;;;;14.50;12.35;;;8.20;99.90;;;;;;5049352;28;20043;-69
2021/04/25 07:02:25;;;;;;;14.23;12.63;;;8.30;99.90;;;;;;5049150;28;20041;-69
2021/04/25 07:04:52;;;;;;;18.05;12.13;;;8.40;99.90;;;;;;5047078;28;20048;-68
2021/04/25 07:07:28;;;;;;;14.35;11.52;;;8.40;99.90;;;;;;5047680;28;20128;-69
2021/04/25 07:09:56;;;;;;;13.10;10.77;;;8.50;99.90;;;;;;5048378;28;20515;-69
2021/04/25 07:12:23;;;;;;;14.45;10.85;;;8.60;99.90;;;;;;5045060;28;20095;-69
2021/04/25 07:14:49;;;;;;;12.30;10.85;;;8.80;99.90;;;;;;5049820;28;20097;-68
2021/04/25 07:17:16;;;;;;;12.82;10.85;;;8.90;99.90;;;;;;5049957;28;20083;-69
2021/04/25 07:19:43;;;;;;;11.35;10.15;;;9.10;99.90;;;;;;5046358;28;20132;-69
2021/04/25 07:22:11;;;;;;;12.10;10.68;;;9.20;99.90;;;;;;5010985;28;20080;-69
2021/04/25 07:24:38;;;;;;;12.75;10.73;;;9.30;99.90;;;;;;5046740;28;20053;-69
2021/04/25 07:27:05;;;;;;;13.60;11.77;;;9.40;99.90;;;;;;5046700;28;20095;-69
2021/04/25 07:29:32;;;;;;;9.80;8.90;;;9.50;99.90;;;;;;5047224;28;20561;-69
2021/04/25 07:31:59;;;;;;;11.85;9.13;;;9.60;99.90;;;;;;5048395;28;20056;-69
2021/04/25 07:34:27;;;;;;;12.25;8.77;;;9.80;99.90;;;;;;5045882;28;20132;-69
2021/04/25 07:36:54;;;;;;;14.25;10.38;;;9.90;99.90;;;;;;5057453;28;20102;-69
2021/04/25 07:39:20;;;;;;;10.65;9.35;;;10.00;99.90;;;;;;5050296;28;20061;-69
2021/04/25 07:41:48;;;;;;;13.15;9.63;;;10.10;99.90;;;;;;5049323;28;20048;-69
2021/04/25 07:44:16;;;;;;;10.35;8.75;;;10.10;99.90;;;;;;5044075;28;20559;-69
2021/04/25 07:46:43;;;;;;;11.63;9.40;;;10.20;99.90;;;;;;5040010;28;20045;-69
2021/04/25 07:49:11;;;;;;;12.35;8.50;;;10.30;99.90;;;;;;5042204;28;20428;-69
2021/04/25 07:51:38;;;;;;;9.93;8.93;;;10.30;99.90;;;;;;5052420;28;20079;-69
2021/04/25 07:54:05;;;;;;;12.82;8.82;;;10.40;99.90;;;;;;5051037;28;20127;-69
2021/04/25 07:56:32;;;;;;;10.15;9.00;;;10.40;99.90;;;;;;5050921;28;20052;-69
2021/04/25 07:59:06;;;;;;;12.75;9.00;;;10.50;99.90;;;;;;5041903;28;20051;-69
2021/04/25 08:01:39;;;;;;;9.80;8.90;;;10.60;99.90;;;;;;5039931;28;20045;-69
2021/04/25 08:04:15;;;;;;;11.40;9.05;;;10.60;99.90;;;;;;5036330;28;20400;-69
2021/04/25 08:06:42;;;;;;;10.88;9.57;;;10.60;99.90;;;;;;5047643;28;20048;-69
2021/04/25 08:09:10;;;;;;;15.32;9.90;;;10.60;99.80;;;;;;5040213;28;20111;-70
2021/04/25 08:11:37;;;;;;;10.02;8.98;;;10.70;99.90;;;;;;5044399;28;20455;-69
2021/04/25 08:14:05;;;;;;;11.88;9.73;;;10.80;99.60;;;;;;5049351;28;20395;-69
2021/04/25 08:16:32;;;;;;;10.52;9.23;;;10.90;99.20;;;;;;5046772;28;20533;-69
2021/04/25 08:19:00;;;;;;;10.70;8.82;;;10.90;99.40;;;;;;5043546;28;20052;-69
2021/04/25 08:21:28;;;;;;;9.90;8.52;;;11.00;99.10;;;;;;5039194;28;20046;-69
2021/04/25 08:23:56;;;;;;;9.95;8.95;;;11.00;98.30;;;;;;5044173;28;20045;-69
2021/04/25 08:26:23;;;;;;;10.02;8.45;;;11.00;98.00;;;;;;5039022;28;20095;-69
2021/04/25 08:28:50;;;;;;;9.95;8.80;;;11.10;98.00;;;;;;5047846;28;20052;-69
2021/04/25 08:31:17;;;;;;;10.32;9.32;;;11.20;96.90;;;;;;5042735;28;20067;-69
2021/04/25 08:33:46;;;;;;;9.98;9.05;;;11.30;96.70;;;;;;5047950;28;20061;-68
2021/04/25 08:36:14;;;;;;;13.55;9.90;;;11.40;95.80;;;;;;5041270;28;20128;-68
2021/04/25 08:38:42;;;;;;;9.85;8.85;;;11.50;95.70;;;;;;5046818;28;20102;-68
2021/04/25 08:41:13;;;;;;;9.98;9.05;;;11.60;95.40;;;;;;5043210;28;20096;-69
2021/04/25 08:43:43;;;;;;;9.55;8.68;;;11.70;95.20;;;;;;5045316;28;20057;-69
2021/04/25 08:46:13;;;;;;;9.60;8.70;;;11.70;94.80;;;;;;5037412;28;20049;-69
2021/04/25 08:48:41;;;;;;;12.50;9.05;;;11.80;94.50;;;;;;5049297;28;20538;-69
2021/04/25 08:51:10;;;;;;;11.93;8.88;;;12.00;94.80;;;;;;5047973;28;20081;-69
2021/04/25 08:53:39;;;;;;;10.35;9.20;;;12.00;93.40;;;;;;5045079;28;20499;-69
2021/04/25 08:56:11;;;;;;;9.52;8.55;;;12.10;93.40;;;;;;5053108;28;20053;-69
2021/04/25 08:58:39;;;;;;;10.43;8.50;;;12.20;93.00;;;;;;5042721;28;20051;-70
2021/04/25 09:01:06;;;;;;;10.60;8.88;;;12.20;92.90;;;;;;5051543;28;20122;-70
2021/04/25 09:03:36;;;;;;;10.20;9.20;;;12.30;92.80;;;;;;5053360;28;20048;-69
2021/04/25 09:06:05;;;;;;;9.68;8.70;;;12.30;93.00;;;;;;5051963;28;20051;-69
2021/04/25 09:08:43;;;;;;;9.00;8.20;;;12.40;92.70;;;;;;5045190;28;20076;-69
2021/04/25 09:11:28;;;;;;;9.65;8.65;;;12.60;92.30;;;;;;5048014;28;20087;-69
2021/04/25 09:14:14;;;;;;;11.27;8.70;;;12.70;91.80;;;;;;5042415;28;20053;-69
2021/04/25 09:16:45;;;;;;;11.88;8.90;;;12.80;91.40;;;;;;5042597;28;20076;-69
2021/04/25 09:19:13;;;;;;;9.57;7.90;;;12.90;91.60;;;;;;5052011;28;20107;-69
2021/04/25 09:22:06;;;;;;;10.05;8.98;;;12.90;91.00;;;;;;5049333;28;20049;-69
2021/04/25 09:24:33;;;;;;;10.25;8.75;;;13.00;91.00;;;;;;5048502;28;20079;-72
2021/04/25 09:27:00;;;;;;;9.20;8.30;;;13.00;90.50;;;;;;5059287;28;20041;-70
2021/04/25 09:29:50;;;;;;;11.77;9.27;;;13.10;91.20;;;;;;5034039;28;20045;-70
2021/04/25 09:32:29;;;;;;;10.90;8.35;;;13.20;90.80;;;;;;5044780;28;20049;-69
2021/04/25 09:35:19;;;;;;;13.15;8.90;;;13.20;90.70;;;;;;5050106;28;20128;-69
2021/04/25 09:37:49;;;;;;;9.70;8.70;;;12.90;90.10;;;;;;5047096;28;20113;-69
2021/04/25 09:40:24;;;;;;;9.35;8.45;;;12.80;90.10;;;;;;5029995;28;20137;-69
2021/04/25 09:42:59;;;;;;;10.63;8.38;;;13.00;90.60;;;;;;5040945;28;20064;-69
2021/04/25 09:45:29;;;;;;;9.13;8.20;;;13.20;90.40;;;;;;5045460;28;20128;-69
2021/04/25 09:47:58;;;;;;;9.05;8.10;;;13.40;89.50;;;;;;5047520;28;20041;-69
2021/04/25 09:50:25;;;;;;;10.32;8.88;;;13.60;89.50;;;;;;5040589;28;20053;-68
2021/04/25 09:52:52;;;;;;;9.30;8.35;;;13.80;88.20;;;;;;5049830;28;20839;-68
2021/04/25 09:55:23;;;;;;;10.95;8.73;;;13.90;85.40;;;;;;5023455;28;20061;-68
2021/04/25 09:57:54;;;;;;;12.05;9.20;;;13.90;85.00;;;;;;5041217;28;20041;-69
2021/04/25 10:00:22;;;;;;;12.40;9.73;;;14.00;84.60;;;;;;5043976;28;20072;-69
2021/04/25 10:03:09;;;;;;;9.75;8.73;;;14.20;85.60;;;;;;5038609;28;20048;-69
2021/04/25 10:05:39;;;;;;;10.48;9.27;;;14.40;84.60;;;;;;5043054;28;20045;-69
2021/04/25 10:08:06;;;;;;;12.00;9.48;;;14.60;83.90;;;;;;5050243;28;20092;-68
2021/04/25 10:10:50;;;;;;;11.23;9.00;;;14.80;83.30;;;;;;5041143;28;20139;-68
2021/04/25 10:13:24;;;;;;;10.65;8.90;;;15.00;83.20;;;;;;5044220;28;20049;-68
2021/04/25 10:15:52;;;;;;;9.13;8.20;;;15.00;82.00;;;;;;5048592;28;20045;-69
2021/04/25 10:18:19;;;;;;;9.75;8.18;;;15.20;81.20;;;;;;5049265;28;20041;-69
2021/04/25 10:20:53;;;;;;;9.75;8.77;;;15.20;81.40;;;;;;5050195;28;20101;-69
2021/04/25 10:23:20;;;;;;;9.52;8.40;;;15.20;81.20;;;;;;5049116;28;20535;-69
2021/04/25 10:25:48;;;;;;;9.25;8.38;;;15.50;80.10;;;;;;5046525;28;20124;-68
2021/04/25 10:28:24;;;;;;;9.68;8.38;;;15.70;79.70;;;;;;5049339;28;20060;-69
2021/04/25 10:30:56;;;;;;;10.68;9.57;;;15.80;79.10;;;;;;5047998;28;20049;-70
2021/04/25 10:33:23;;;;;;;11.40;9.10;;;15.70;77.90;;;;;;5039433;28;20049;-71
2021/04/25 10:35:55;;;;;;;9.57;8.65;;;15.60;77.60;;;;;;5049530;28;20053;-71
2021/04/25 10:38:39;;;;;;;10.70;8.95;;;15.50;76.70;;;;;;5049465;28;20511;-70
2021/04/25 10:41:26;;;;;;;12.70;9.70;;;14.80;77.10;;;;;;5049638;28;20041;-70
2021/04/25 10:44:05;;;;;;;10.55;8.95;;;14.60;77.40;;;;;;5042435;28;20061;-69
2021/04/25 10:46:53;;;;;;;9.93;8.95;;;14.50;77.60;;;;;;5040436;28;20060;-70
2021/04/25 10:49:39;;;;;;;11.05;9.10;;;14.50;77.20;;;;;;5040087;28;20498;-69
2021/04/25 10:52:24;;;;;;;10.10;8.80;;;14.80;76.50;;;;;;5051428;28;20060;-69
2021/04/25 10:55:24;;;;;;;11.73;8.63;;;14.80;75.40;;;;;;5039339;28;20059;-70
2021/04/25 10:57:59;;;;;;;9.57;8.60;;;15.10;75.30;;;;;;5051044;28;20458;-69
2021/04/25 11:00:32;;;;;;;9.07;8.18;;;15.50;73.90;;;;;;5040911;28;20084;-67
2021/04/25 11:03:02;;;;;;;9.23;8.43;;;15.80;74.00;;;;;;5036574;28;20045;-69
2021/04/25 11:05:35;;;;;;;12.30;8.43;;;15.50;73.50;;;;;;5043579;28;20084;-69
2021/04/25 11:08:04;;;;;;;9.40;8.40;;;15.30;74.30;;;;;;5040226;28;20079;-69
2021/04/25 11:10:55;;;;;;;10.15;8.35;;;15.20;74.10;;;;;;5041445;28;20053;-69
2021/04/25 11:13:33;;;;;;;10.30;9.00;;;15.40;74.20;;;;;;5048650;28;20112;-69
2021/04/25 11:16:08;;;;;;;9.75;8.60;;;15.70;73.70;;;;;;5051208;28;20045;-70
2021/04/25 11:19:10;;;;;;;9.35;8.45;;;15.90;72.40;;;;;;5038134;28;20386;-70
2021/04/25 11:21:50;;;;;;;;;;;15.80;70.10;;;;;;5037043;28;20048;-70
2021/04/25 11:24:17;;;;;;;11.77;8.32;;;16.00;69.40;;;;;;5033365;28;19921;-69
2021/04/25 11:26:46;;;;;;;9.68;8.75;;;16.10;70.10;;;;;;5046230;28;20049;-69
2021/04/25 11:29:43;;;;;;;11.55;8.57;;;16.10;69.50;;;;;;5041570;28;20081;-68
2021/04/25 11:32:24;;;;;;;10.55;8.32;;;16.40;70.00;;;;;;5048726;28;20388;-69
2021/04/25 11:35:05;;;;;;;9.55;8.55;;;17.00;68.50;;;;;;5040651;28;20056;-70
2021/04/25 11:37:32;;;;;;;9.63;8.73;;;16.90;68.40;;;;;;5043247;28;20057;-69
2021/04/25 11:40:02;;;;;;;9.10;8.30;;;16.90;69.10;;;;;;5041058;28;20053;-71
2021/04/25 11:42:46;;;;;;;9.60;8.52;;;17.40;66.70;;;;;;5046955;28;20361;-68
2021/04/25 11:45:23;;;;;;;9.65;8.55;;;17.70;66.40;;;;;;5035340;28;20053;-68
2021/04/25 11:48:05;;;;;;;9.30;8.40;;;18.10;65.30;;;;;;5049682;28;20045;-70
2021/04/25 11:50:37;;;;;;;9.45;8.55;;;18.30;62.40;;;;;;5050647;28;20081;-70
2021/04/25 11:53:06;;;;;;;12.75;9.10;;;18.30;61.90;;;;;;5048792;28;20127;-70
2021/04/25 11:55:34;;;;;;;12.80;9.90;;;18.00;62.90;;;;;;5048440;28;20099;-70
2021/04/25 11:58:01;;;;;;;9.73;8.82;;;18.00;64.30;;;;;;5047850;28;20044;-69
2021/04/25 12:00:36;;;;;;;9.90;8.90;;;18.10;63.20;;;;;;5050450;28;20053;-69
2021/04/25 12:03:05;;;;;;;9.25;8.40;;;18.70;62.80;;;;;;5048045;28;20432;-68
2021/04/25 12:05:38;;;;;;;11.55;9.80;;;19.20;63.40;;;;;;5032865;28;20544;-69
2021/04/25 12:08:08;;;;;;;10.40;9.38;;;19.80;61.10;;;;;;5047274;28;20102;-69
2021/04/25 12:10:39;;;;;;;9.85;8.77;;;20.50;61.50;;;;;;5050561;28;20053;-70
2021/04/25 12:13:14;;;;;;;9.55;8.73;;;21.10;61.00;;;;;;5030374;28;20056;-68
2021/04/25 12:15:50;;;;;;;10.15;9.20;;;21.40;59.20;;;;;;5033017;28;20056;-69
2021/04/25 12:18:21;;;;;;;9.73;8.82;;;21.50;58.10;;;;;;5044897;28;20514;-70
2021/04/25 12:21:05;;;;;;;9.33;8.57;;;21.50;57.60;;;;;;5032271;28;20134;-70
2021/04/25 12:23:34;;;;;;;10.60;8.85;;;21.50;58.20;;;;;;5034255;28;20045;-70
2021/04/25 12:26:10;;;;;;;9.30;8.50;;;21.40;57.70;;;;;;5047134;28;20072;-70
2021/04/25 12:28:42;;;;;;;9.70;8.80;;;21.30;58.30;;;;;;5039847;28;20051;-70
2021/04/25 12:31:15;;;;;;;9.82;8.82;;;21.90;57.60;;;;;;5053197;28;20056;-71
2021/04/25 12:33:44;;;;;;;9.20;8.30;;;21.30;57.10;;;;;;5049547;28;20455;-70
2021/04/25 12:36:13;;;;;;;9.27;8.32;;;21.40;57.40;;;;;;5041949;28;20500;-72
2021/04/25 12:38:42;;;;;;;9.25;8.45;;;21.00;58.00;;;;;;5048959;28;20076;-74
2021/04/25 12:41:14;;;;;;;10.60;8.40;;;20.80;57.40;;;;;;5037640;28;20053;-69
2021/04/25 12:43:47;;;;;;;9.88;8.82;;;20.40;57.90;;;;;;5036794;28;20048;-70
2021/04/25 12:46:25;;;;;;;9.70;8.82;;;21.00;57.60;;;;;;5041081;28;20060;-70
2021/04/25 12:48:54;;;;;;;10.18;8.90;;;21.30;56.70;;;;;;5041045;28;20410;-70
2021/04/25 12:51:32;;;;;;;9.73;8.75;;;21.20;56.40;;;;;;5041820;28;20124;-71